sensor_id;sensor_type;location;lat;lon;timestamp;P1;durP1;ratioP1;P2;durP2;ratioP2
17193;SDS011;8713;48.388;10.928;2023-03-23T08:01:07;5.53;;;2.40;;
17193;SDS011;8713;48.388;10.928;2023-03-23T08:02:39;5.97;;;2.63;;
17193;SDS011;8713;48.388;10.928;2023-03-23T08:04:42;5.57;;;2.72;;
17193;SDS011;8713;48.388;10.928;2023-03-23T08:06:33;6.35;;;2.67;;
17193;SDS011;8713;48.388;10.928;2023-03-23T08:08:22;5.25;;;2.88;;
17193;SDS011;8713;48.388;10.928;2023-03-23T08:10:24;4.72;;;2.88;;
17193;SDS011;8713;48.388;10.928;2023-03-23T08:12:18;4.65;;;2.50;;
17193;SDS011;8713;48.388;10.928;2023-03-23T08:14:14;4.40;;;2.90;;
17193;SDS011;8713;48.388;10.928;2023-03-23T08:16:01;7.05;;;2.58;;
17193;SDS011;8713;48.388;10.928;2023-03-23T08:17:51;5.15;;;2.35;;
17193;SDS011;8713;48.388;10.928;2023-03-23T08:19:41;4.07;;;2.58;;
17193;SDS011;8713;48.388;10.928;2023-03-23T08:21:30;6.55;;;2.42;;
17193;SDS011;8713;48.388;10.928;2023-03-23T08:23:14;3.20;;;2.15;;
17193;SDS011;8713;48.388;10.928;2023-03-23T08:25:09;3.95;;;2.60;;
17193;SDS011;8713;48.388;10.928;2023-03-23T08:27:00;4.75;;;2.53;;
17193;SDS011;8713;48.388;10.928;2023-03-23T08:28:48;5.55;;;2.60;;
17193;SDS011;8713;48.388;10.928;2023-03-23T08:30:40;5.57;;;2.80;;
17193;SDS011;8713;48.388;10.928;2023-03-23T08:32:25;3.95;;;2.30;;
17193;SDS011;8713;48.388;10.928;2023-03-23T08:34:13;5.43;;;2.72;;
17193;SDS011;8713;48.388;10.928;2023-03-23T08:36:14;4.72;;;2.13;;
17193;SDS011;8713;48.388;10.928;2023-03-23T08:37:47;3.00;;;2.00;;
17193;SDS011;8713;48.388;10.928;2023-03-23T08:39:52;4.93;;;1.95;;
17193;SDS011;8713;48.388;10.928;2023-03-23T08:41:53;4.05;;;2.10;;
17193;SDS011;8713;48.388;10.928;2023-03-23T08:43:55;4.97;;;2.40;;
17193;SDS011;8713;48.388;10.928;2023-03-23T08:45:26;3.55;;;2.05;;
17193;SDS011;8713;48.388;10.928;2023-03-23T08:47:17;4.97;;;1.85;;
17193;SDS011;8713;48.388;10.928;2023-03-23T08:49:18;3.22;;;1.88;;
17193;SDS011;8713;48.388;10.928;2023-03-23T08:51:28;3.70;;;1.70;;
17193;SDS011;8713;48.388;10.928;2023-03-23T08:53:18;3.85;;;1.45;;
17193;SDS011;8713;48.388;10.928;2023-03-23T08:54:50;3.13;;;1.27;;
17193;SDS011;8713;48.388;10.928;2023-03-23T08:56:50;2.10;;;1.40;;
17193;SDS011;8713;48.388;10.928;2023-03-23T08:58:33;2.55;;;1.60;;
17193;SDS011;8713;48.388;10.928;2023-03-23T09:00:07;3.33;;;1.42;;
17193;SDS011;8713;48.388;10.928;2023-03-23T09:01:44;3.67;;;1.45;;
17193;SDS011;8713;48.388;10.928;2023-03-23T09:03:16;4.63;;;1.30;;
17193;SDS011;8713;48.388;10.928;2023-03-23T09:04:39;2.78;;;1.00;;
17193;SDS011;8713;48.388;10.928;2023-03-23T09:06:20;3.95;;;1.00;;
17193;SDS011;8713;48.388;10.928;2023-03-23T09:07:29;3.63;;;1.15;;
17193;SDS011;8713;48.388;10.928;2023-03-23T09:08:39;2.40;;;1.10;;
17193;SDS011;8713;48.388;10.928;2023-03-23T09:09:48;2.45;;;1.20;;
17193;SDS011;8713;48.388;10.928;2023-03-23T09:11:02;1.17;;;0.90;;
17193;SDS011;8713;48.388;10.928;2023-03-23T09:12:15;1.67;;;0.93;;
17193;SDS011;8713;48.388;10.928;2023-03-23T09:13:25;2.28;;;1.17;;
17193;SDS011;8713;48.388;10.928;2023-03-23T09:14:35;1.77;;;1.17;;
17193;SDS011;8713;48.388;10.928;2023-03-23T09:15:45;1.67;;;1.13;;
17193;SDS011;8713;48.388;10.928;2023-03-23T09:16:55;2.47;;;0.68;;
17193;SDS011;8713;48.388;10.928;2023-03-23T09:18:04;2.63;;;1.17;;
17193;SDS011;8713;48.388;10.928;2023-03-23T09:19:14;2.78;;;1.23;;
17193;SDS011;8713;48.388;10.928;2023-03-23T09:20:25;2.55;;;1.23;;
17193;SDS011;8713;48.388;10.928;2023-03-23T09:21:36;2.30;;;0.88;;
17193;SDS011;8713;48.388;10.928;2023-03-23T09:22:46;4.88;;;1.50;;
17193;SDS011;8713;48.388;10.928;2023-03-23T09:23:59;1.77;;;1.40;;
17193;SDS011;8713;48.388;10.928;2023-03-23T09:25:29;1.60;;;1.00;;
17193;SDS011;8713;48.388;10.928;2023-03-23T09:26:57;2.38;;;1.17;;
17193;SDS011;8713;48.388;10.928;2023-03-23T09:28:26;2.05;;;1.13;;
17193;SDS011;8713;48.388;10.928;2023-03-23T09:29:35;1.48;;;1.05;;
17193;SDS011;8713;48.388;10.928;2023-03-23T09:30:46;3.45;;;1.23;;
17193;SDS011;8713;48.388;10.928;2023-03-23T09:31:56;2.30;;;1.10;;
17193;SDS011;8713;48.388;10.928;2023-03-23T09:33:06;2.40;;;1.35;;
17193;SDS011;8713;48.388;10.928;2023-03-23T09:34:36;1.50;;;1.20;;
17193;SDS011;8713;48.388;10.928;2023-03-23T09:36:07;3.28;;;1.33;;
17193;SDS011;8713;48.388;10.928;2023-03-23T09:37:40;2.83;;;1.10;;
17193;SDS011;8713;48.388;10.928;2023-03-23T09:39:08;1.85;;;1.27;;
17193;SDS011;8713;48.388;10.928;2023-03-23T09:40:46;3.35;;;1.35;;
17193;SDS011;8713;48.388;10.928;2023-03-23T09:44:38;3.35;;;1.10;;
17193;SDS011;8713;48.388;10.928;2023-03-23T09:50:41;1.42;;;0.93;;
17193;SDS011;8713;48.388;10.928;2023-03-23T09:52:15;5.53;;;1.08;;
17193;SDS011;8713;48.388;10.928;2023-03-23T09:53:47;3.83;;;1.30;;
17193;SDS011;8713;48.388;10.928;2023-03-23T09:55:19;2.22;;;1.00;;
17193;SDS011;8713;48.388;10.928;2023-03-23T09:56:49;2.08;;;1.10;;
17193;SDS011;8713;48.388;10.928;2023-03-23T10:01:53;3.45;;;1.30;;
17193;SDS011;8713;48.388;10.928;2023-03-23T10:03:39;3.70;;;1.30;;
17193;SDS011;8713;48.388;10.928;2023-03-23T10:06:58;3.15;;;1.38;;
17193;SDS011;8713;48.388;10.928;2023-03-23T10:08:35;3.25;;;1.40;;
17193;SDS011;8713;48.388;10.928;2023-03-23T10:10:12;4.32;;;1.45;;
17193;SDS011;8713;48.388;10.928;2023-03-23T10:13:06;2.53;;;1.20;;
17193;SDS011;8713;48.388;10.928;2023-03-23T10:16:48;2.83;;;1.27;;
17193;SDS011;8713;48.388;10.928;2023-03-23T10:18:47;2.70;;;1.35;;
17193;SDS011;8713;48.388;10.928;2023-03-23T10:21:39;2.78;;;1.35;;
17193;SDS011;8713;48.388;10.928;2023-03-23T10:23:14;2.60;;;1.23;;
17193;SDS011;8713;48.388;10.928;2023-03-23T10:24:51;2.92;;;1.27;;
17193;SDS011;8713;48.388;10.928;2023-03-23T10:28:23;2.38;;;1.20;;
17193;SDS011;8713;48.388;10.928;2023-03-23T10:31:25;3.03;;;1.20;;
17193;SDS011;8713;48.388;10.928;2023-03-23T10:33:00;1.95;;;1.23;;
17193;SDS011;8713;48.388;10.928;2023-03-23T10:34:47;2.40;;;1.42;;
17193;SDS011;8713;48.388;10.928;2023-03-23T10:38:37;1.63;;;1.23;;
17193;SDS011;8713;48.388;10.928;2023-03-23T10:40:13;2.30;;;1.20;;
17193;SDS011;8713;48.388;10.928;2023-03-23T10:41:48;2.75;;;1.20;;
17193;SDS011;8713;48.388;10.928;2023-03-23T10:43:16;3.47;;;0.95;;
17193;SDS011;8713;48.388;10.928;2023-03-23T10:44:44;2.15;;;1.10;;
17193;SDS011;8713;48.388;10.928;2023-03-23T10:46:01;3.13;;;1.23;;
17193;SDS011;8713;48.388;10.928;2023-03-23T10:47:33;2.65;;;1.30;;
17193;SDS011;8713;48.388;10.928;2023-03-23T10:49:06;1.95;;;1.15;;
17193;SDS011;8713;48.388;10.928;2023-03-23T10:50:39;1.65;;;1.20;;
17193;SDS011;8713;48.388;10.928;2023-03-23T10:51:56;1.65;;;1.10;;
17193;SDS011;8713;48.388;10.928;2023-03-23T10:53:43;2.75;;;1.00;;
17193;SDS011;8713;48.388;10.928;2023-03-23T10:58:10;2.20;;;1.30;;
17193;SDS011;8713;48.388;10.928;2023-03-23T10:59:41;2.35;;;1.00;;
17193;SDS011;8713;48.388;10.928;2023-03-23T11:01:10;3.08;;;1.27;;
17193;SDS011;8713;48.388;10.928;2023-03-23T11:02:44;2.38;;;1.40;;
17193;SDS011;8713;48.388;10.928;2023-03-23T11:04:17;2.67;;;1.35;;
17193;SDS011;8713;48.388;10.928;2023-03-23T11:05:53;1.27;;;0.90;;
17193;SDS011;8713;48.388;10.928;2023-03-23T11:07:28;7.00;;;1.25;;
17193;SDS011;8713;48.388;10.928;2023-03-23T11:09:01;2.05;;;1.35;;
17193;SDS011;8713;48.388;10.928;2023-03-23T11:10:35;1.60;;;0.90;;
17193;SDS011;8713;48.388;10.928;2023-03-23T11:12:15;2.75;;;1.27;;
17193;SDS011;8713;48.388;10.928;2023-03-23T11:13:39;1.65;;;0.88;;
17193;SDS011;8713;48.388;10.928;2023-03-23T11:15:36;1.83;;;1.00;;
17193;SDS011;8713;48.388;10.928;2023-03-23T11:17:20;3.45;;;1.20;;
17193;SDS011;8713;48.388;10.928;2023-03-23T11:18:36;1.45;;;1.10;;
17193;SDS011;8713;48.388;10.928;2023-03-23T11:20:11;2.97;;;1.10;;
17193;SDS011;8713;48.388;10.928;2023-03-23T11:21:40;2.42;;;1.10;;
17193;SDS011;8713;48.388;10.928;2023-03-23T11:23:30;1.52;;;0.73;;
17193;SDS011;8713;48.388;10.928;2023-03-23T11:25:03;3.17;;;1.02;;
17193;SDS011;8713;48.388;10.928;2023-03-23T11:26:30;1.63;;;1.10;;
17193;SDS011;8713;48.388;10.928;2023-03-23T11:28:01;3.05;;;1.15;;
17193;SDS011;8713;48.388;10.928;2023-03-23T11:29:30;2.83;;;1.25;;
17193;SDS011;8713;48.388;10.928;2023-03-23T11:30:58;1.92;;;1.02;;
17193;SDS011;8713;48.388;10.928;2023-03-23T11:32:29;1.40;;;0.88;;
17193;SDS011;8713;48.388;10.928;2023-03-23T11:34:19;1.90;;;1.00;;
17193;SDS011;8713;48.388;10.928;2023-03-23T11:35:58;1.65;;;0.90;;
17193;SDS011;8713;48.388;10.928;2023-03-23T11:39:23;1.73;;;1.00;;
17193;SDS011;8713;48.388;10.928;2023-03-23T11:40:42;2.08;;;1.10;;
17193;SDS011;8713;48.388;10.928;2023-03-23T11:42:16;2.40;;;1.10;;
17193;SDS011;8713;48.388;10.928;2023-03-23T11:43:51;1.38;;;1.00;;
17193;SDS011;8713;48.388;10.928;2023-03-23T11:45:33;1.30;;;1.05;;
17193;SDS011;8713;48.388;10.928;2023-03-23T11:47:15;1.30;;;1.10;;
17193;SDS011;8713;48.388;10.928;2023-03-23T11:49:09;3.25;;;1.10;;
17193;SDS011;8713;48.388;10.928;2023-03-23T11:54:47;2.25;;;1.10;;
17193;SDS011;8713;48.388;10.928;2023-03-23T11:56:35;2.33;;;1.20;;
17193;SDS011;8713;48.388;10.928;2023-03-23T11:58:13;3.45;;;1.10;;
17193;SDS011;8713;48.388;10.928;2023-03-23T11:59:43;1.45;;;1.00;;
17193;SDS011;8713;48.388;10.928;2023-03-23T12:02:54;1.33;;;0.85;;
17193;SDS011;8713;48.388;10.928;2023-03-23T12:04:33;2.30;;;0.93;;
17193;SDS011;8713;48.388;10.928;2023-03-23T12:13:35;3.13;;;1.10;;
17193;SDS011;8713;48.388;10.928;2023-03-23T12:18:42;1.83;;;1.10;;
17193;SDS011;8713;48.388;10.928;2023-03-23T12:22:38;1.58;;;1.10;;
17193;SDS011;8713;48.388;10.928;2023-03-23T12:25:48;2.08;;;0.80;;
17193;SDS011;8713;48.388;10.928;2023-03-23T12:27:35;2.60;;;1.00;;
17193;SDS011;8713;48.388;10.928;2023-03-23T12:29:05;3.40;;;1.10;;
17193;SDS011;8713;48.388;10.928;2023-03-23T12:31:34;2.53;;;1.13;;
17193;SDS011;8713;48.388;10.928;2023-03-23T12:32:51;4.20;;;1.10;;
17193;SDS011;8713;48.388;10.928;2023-03-23T12:37:48;1.05;;;0.95;;
17193;SDS011;8713;48.388;10.928;2023-03-23T12:44:47;0.80;;;0.80;;
17193;SDS011;8713;48.388;10.928;2023-03-23T12:46:05;3.63;;;0.90;;
17193;SDS011;8713;48.388;10.928;2023-03-23T12:48:02;3.70;;;1.00;;
17193;SDS011;8713;48.388;10.928;2023-03-23T12:49:22;1.27;;;0.93;;
17193;SDS011;8713;48.388;10.928;2023-03-23T12:50:38;0.85;;;0.73;;
17193;SDS011;8713;48.388;10.928;2023-03-23T12:52:06;1.50;;;0.80;;
17193;SDS011;8713;48.388;10.928;2023-03-23T12:53:39;1.63;;;0.85;;
17193;SDS011;8713;48.388;10.928;2023-03-23T12:56:58;1.80;;;0.98;;
17193;SDS011;8713;48.388;10.928;2023-03-23T12:58:29;1.77;;;0.82;;
17193;SDS011;8713;48.388;10.928;2023-03-23T13:02:05;1.55;;;0.90;;
17193;SDS011;8713;48.388;10.928;2023-03-23T13:06:40;2.33;;;1.00;;
17193;SDS011;8713;48.388;10.928;2023-03-23T13:07:53;2.35;;;1.00;;
17193;SDS011;8713;48.388;10.928;2023-03-23T13:09:22;1.40;;;1.05;;
17193;SDS011;8713;48.388;10.928;2023-03-23T13:10:48;1.65;;;0.88;;
17193;SDS011;8713;48.388;10.928;2023-03-23T13:12:19;1.98;;;0.80;;
17193;SDS011;8713;48.388;10.928;2023-03-23T13:13:43;3.38;;;0.90;;
17193;SDS011;8713;48.388;10.928;2023-03-23T13:16:38;1.48;;;1.00;;
17193;SDS011;8713;48.388;10.928;2023-03-23T13:18:08;1.42;;;0.98;;
17193;SDS011;8713;48.388;10.928;2023-03-23T13:21:52;1.80;;;1.10;;
17193;SDS011;8713;48.388;10.928;2023-03-23T13:25:17;2.10;;;1.10;;
17193;SDS011;8713;48.388;10.928;2023-03-23T13:26:36;1.42;;;0.90;;
17193;SDS011;8713;48.388;10.928;2023-03-23T13:27:58;2.10;;;0.95;;
17193;SDS011;8713;48.388;10.928;2023-03-23T13:29:12;0.80;;;0.73;;
17193;SDS011;8713;48.388;10.928;2023-03-23T13:30:27;1.77;;;0.93;;
17193;SDS011;8713;48.388;10.928;2023-03-23T13:33:51;1.25;;;0.80;;
17193;SDS011;8713;48.388;10.928;2023-03-23T13:35:22;2.97;;;1.30;;
17193;SDS011;8713;48.388;10.928;2023-03-23T13:36:39;3.08;;;0.98;;
17193;SDS011;8713;48.388;10.928;2023-03-23T13:37:51;2.17;;;1.20;;
17193;SDS011;8713;48.388;10.928;2023-03-23T13:39:04;4.00;;;1.10;;
17193;SDS011;8713;48.388;10.928;2023-03-23T13:40:23;2.95;;;1.05;;
17193;SDS011;8713;48.388;10.928;2023-03-23T13:41:45;1.88;;;1.20;;
17193;SDS011;8713;48.388;10.928;2023-03-23T13:43:34;3.17;;;1.02;;
17193;SDS011;8713;48.388;10.928;2023-03-23T13:45:51;4.63;;;0.98;;
17193;SDS011;8713;48.388;10.928;2023-03-23T13:46:36;1.60;;;0.95;;
17193;SDS011;8713;48.388;10.928;2023-03-23T13:47:46;2.25;;;1.10;;
17193;SDS011;8713;48.388;10.928;2023-03-23T13:49:20;2.50;;;1.00;;
17193;SDS011;8713;48.388;10.928;2023-03-23T13:52:13;3.00;;;1.10;;
17193;SDS011;8713;48.388;10.928;2023-03-23T13:55:47;2.13;;;1.10;;
17193;SDS011;8713;48.388;10.928;2023-03-23T13:57:19;1.15;;;0.90;;
17193;SDS011;8713;48.388;10.928;2023-03-23T13:59:06;1.60;;;1.00;;
17193;SDS011;8713;48.388;10.928;2023-03-23T14:01:09;2.85;;;1.00;;
17193;SDS011;8713;48.388;10.928;2023-03-23T14:02:40;1.48;;;1.02;;
17193;SDS011;8713;48.388;10.928;2023-03-23T14:03:58;3.45;;;1.20;;
17193;SDS011;8713;48.388;10.928;2023-03-23T14:06:47;1.73;;;1.08;;
17193;SDS011;8713;48.388;10.928;2023-03-23T14:08:25;2.38;;;1.13;;
17193;SDS011;8713;48.388;10.928;2023-03-23T14:09:48;3.47;;;1.27;;
17193;SDS011;8713;48.388;10.928;2023-03-23T14:11:21;2.30;;;1.20;;
17193;SDS011;8713;48.388;10.928;2023-03-23T14:12:52;1.90;;;1.00;;
17193;SDS011;8713;48.388;10.928;2023-03-23T14:14:28;2.95;;;1.13;;
17193;SDS011;8713;48.388;10.928;2023-03-23T14:16:00;1.52;;;1.00;;
17193;SDS011;8713;48.388;10.928;2023-03-23T14:17:33;3.13;;;1.10;;
17193;SDS011;8713;48.388;10.928;2023-03-23T14:20:36;2.38;;;1.20;;
17193;SDS011;8713;48.388;10.928;2023-03-23T14:22:05;2.95;;;1.30;;
17193;SDS011;8713;48.388;10.928;2023-03-23T14:23:50;2.83;;;1.35;;
17193;SDS011;8713;48.388;10.928;2023-03-23T14:25:18;4.45;;;1.17;;
17193;SDS011;8713;48.388;10.928;2023-03-23T14:26:48;1.95;;;1.23;;
17193;SDS011;8713;48.388;10.928;2023-03-23T14:28:01;1.77;;;1.27;;
17193;SDS011;8713;48.388;10.928;2023-03-23T14:29:11;2.22;;;1.00;;
17193;SDS011;8713;48.388;10.928;2023-03-23T14:30:40;3.30;;;1.10;;
17193;SDS011;8713;48.388;10.928;2023-03-23T14:32:16;2.00;;;1.20;;
17193;SDS011;8713;48.388;10.928;2023-03-23T14:33:45;2.00;;;1.10;;
17193;SDS011;8713;48.388;10.928;2023-03-23T14:35:24;1.58;;;1.10;;
17193;SDS011;8713;48.388;10.928;2023-03-23T14:37:03;3.10;;;1.08;;
17193;SDS011;8713;48.388;10.928;2023-03-23T14:38:14;2.78;;;1.33;;
17193;SDS011;8713;48.388;10.928;2023-03-23T14:39:48;1.13;;;0.80;;
17193;SDS011;8713;48.388;10.928;2023-03-23T14:41:21;1.50;;;1.10;;
17193;SDS011;8713;48.388;10.928;2023-03-23T14:42:51;2.42;;;1.02;;
17193;SDS011;8713;48.388;10.928;2023-03-23T14:44:28;1.67;;;1.20;;
17193;SDS011;8713;48.388;10.928;2023-03-23T14:46:00;2.88;;;1.10;;
17193;SDS011;8713;48.388;10.928;2023-03-23T14:47:34;2.03;;;1.30;;
17193;SDS011;8713;48.388;10.928;2023-03-23T14:49:06;3.00;;;1.15;;
17193;SDS011;8713;48.388;10.928;2023-03-23T14:50:38;2.70;;;0.80;;
17193;SDS011;8713;48.388;10.928;2023-03-23T14:52:17;3.45;;;1.05;;
17193;SDS011;8713;48.388;10.928;2023-03-23T14:55:11;1.35;;;1.00;;
17193;SDS011;8713;48.388;10.928;2023-03-23T14:56:45;1.20;;;1.05;;
17193;SDS011;8713;48.388;10.928;2023-03-23T14:58:14;3.45;;;1.00;;
17193;SDS011;8713;48.388;10.928;2023-03-23T14:59:25;1.38;;;1.00;;
17193;SDS011;8713;48.388;10.928;2023-03-23T15:00:36;1.45;;;1.00;;
17193;SDS011;8713;48.388;10.928;2023-03-23T15:02:15;1.88;;;1.13;;
17193;SDS011;8713;48.388;10.928;2023-03-23T15:05:49;1.63;;;1.15;;
17193;SDS011;8713;48.388;10.928;2023-03-23T15:07:22;2.85;;;1.20;;
17193;SDS011;8713;48.388;10.928;2023-03-23T15:08:56;4.53;;;1.50;;
17193;SDS011;8713;48.388;10.928;2023-03-23T15:10:09;2.55;;;1.45;;
17193;SDS011;8713;48.388;10.928;2023-03-23T15:11:29;2.05;;;0.98;;
17193;SDS011;8713;48.388;10.928;2023-03-23T15:12:40;2.03;;;1.10;;
17193;SDS011;8713;48.388;10.928;2023-03-23T15:13:54;1.65;;;1.05;;
17193;SDS011;8713;48.388;10.928;2023-03-23T15:15:16;3.97;;;1.48;;
17193;SDS011;8713;48.388;10.928;2023-03-23T15:16:52;2.60;;;1.27;;
17193;SDS011;8713;48.388;10.928;2023-03-23T15:18:32;1.90;;;1.20;;
17193;SDS011;8713;48.388;10.928;2023-03-23T15:20:19;1.42;;;1.10;;
17193;SDS011;8713;48.388;10.928;2023-03-23T15:21:52;1.90;;;1.30;;
17193;SDS011;8713;48.388;10.928;2023-03-23T15:23:27;2.20;;;1.40;;
17193;SDS011;8713;48.388;10.928;2023-03-23T15:25:10;2.35;;;1.13;;
17193;SDS011;8713;48.388;10.928;2023-03-23T15:26:49;2.60;;;1.20;;
17193;SDS011;8713;48.388;10.928;2023-03-23T15:29:52;1.92;;;1.20;;
17193;SDS011;8713;48.388;10.928;2023-03-23T15:31:06;1.52;;;1.13;;
17193;SDS011;8713;48.388;10.928;2023-03-23T15:32:22;2.85;;;1.20;;
17193;SDS011;8713;48.388;10.928;2023-03-23T15:33:35;3.25;;;1.20;;
17193;SDS011;8713;48.388;10.928;2023-03-23T15:35:11;2.85;;;1.30;;
17193;SDS011;8713;48.388;10.928;2023-03-23T15:36:42;3.15;;;1.48;;
17193;SDS011;8713;48.388;10.928;2023-03-23T15:37:53;3.13;;;1.23;;
17193;SDS011;8713;48.388;10.928;2023-03-23T15:39:09;4.10;;;1.50;;
17193;SDS011;8713;48.388;10.928;2023-03-23T15:40:40;3.35;;;1.42;;
17193;SDS011;8713;48.388;10.928;2023-03-23T15:42:19;3.15;;;1.27;;
17193;SDS011;8713;48.388;10.928;2023-03-23T15:43:58;1.45;;;0.88;;
17193;SDS011;8713;48.388;10.928;2023-03-23T15:45:37;3.67;;;1.50;;
17193;SDS011;8713;48.388;10.928;2023-03-23T15:47:15;0.88;;;0.75;;
17193;SDS011;8713;48.388;10.928;2023-03-23T15:51:53;2.67;;;1.30;;
17193;SDS011;8713;48.388;10.928;2023-03-23T15:53:29;2.28;;;1.50;;
17193;SDS011;8713;48.388;10.928;2023-03-23T15:56:52;0.98;;;0.70;;
17193;SDS011;8713;48.388;10.928;2023-03-23T15:58:19;3.08;;;0.90;;
17193;SDS011;8713;48.388;10.928;2023-03-23T15:59:48;3.22;;;0.90;;
17193;SDS011;8713;48.388;10.928;2023-03-23T16:01:18;3.15;;;1.33;;
17193;SDS011;8713;48.388;10.928;2023-03-23T16:02:51;2.63;;;1.20;;
17193;SDS011;8713;48.388;10.928;2023-03-23T16:04:26;2.67;;;1.13;;
17193;SDS011;8713;48.388;10.928;2023-03-23T16:05:56;2.08;;;1.23;;
17193;SDS011;8713;48.388;10.928;2023-03-23T16:07:26;2.85;;;1.42;;
17193;SDS011;8713;48.388;10.928;2023-03-23T16:08:55;4.47;;;1.40;;
17193;SDS011;8713;48.388;10.928;2023-03-23T16:10:24;2.33;;;1.40;;
17193;SDS011;8713;48.388;10.928;2023-03-23T16:11:34;2.47;;;1.23;;
17193;SDS011;8713;48.388;10.928;2023-03-23T16:12:44;2.13;;;1.40;;
17193;SDS011;8713;48.388;10.928;2023-03-23T16:13:53;2.40;;;1.05;;
17193;SDS011;8713;48.388;10.928;2023-03-23T16:15:03;2.30;;;1.30;;
17193;SDS011;8713;48.388;10.928;2023-03-23T16:16:26;3.42;;;1.35;;
17193;SDS011;8713;48.388;10.928;2023-03-23T16:17:42;2.10;;;1.15;;
17193;SDS011;8713;48.388;10.928;2023-03-23T16:18:52;3.65;;;1.38;;
17193;SDS011;8713;48.388;10.928;2023-03-23T16:20:01;2.97;;;1.35;;
17193;SDS011;8713;48.388;10.928;2023-03-23T16:21:14;1.65;;;1.20;;
17193;SDS011;8713;48.388;10.928;2023-03-23T16:22:23;2.75;;;1.52;;
17193;SDS011;8713;48.388;10.928;2023-03-23T16:23:36;4.47;;;1.75;;
17193;SDS011;8713;48.388;10.928;2023-03-23T16:24:51;2.00;;;1.40;;
17193;SDS011;8713;48.388;10.928;2023-03-23T16:26:19;3.35;;;1.60;;
17193;SDS011;8713;48.388;10.928;2023-03-23T16:27:49;2.95;;;1.55;;
17193;SDS011;8713;48.388;10.928;2023-03-23T16:29:17;3.17;;;1.42;;
17193;SDS011;8713;48.388;10.928;2023-03-23T16:30:46;2.47;;;1.33;;
17193;SDS011;8713;48.388;10.928;2023-03-23T16:32:15;2.63;;;1.02;;
17193;SDS011;8713;48.388;10.928;2023-03-23T16:33:43;4.53;;;1.38;;
17193;SDS011;8713;48.388;10.928;2023-03-23T16:35:12;2.85;;;1.73;;
17193;SDS011;8713;48.388;10.928;2023-03-23T16:36:41;2.33;;;1.42;;
17193;SDS011;8713;48.388;10.928;2023-03-23T16:38:14;2.88;;;1.15;;
17193;SDS011;8713;48.388;10.928;2023-03-23T16:39:43;3.65;;;1.40;;
17193;SDS011;8713;48.388;10.928;2023-03-23T16:41:12;3.20;;;1.40;;
17193;SDS011;8713;48.388;10.928;2023-03-23T16:42:40;5.22;;;1.50;;
17193;SDS011;8713;48.388;10.928;2023-03-23T16:43:49;1.90;;;1.42;;
17193;SDS011;8713;48.388;10.928;2023-03-23T16:45:18;2.35;;;1.35;;
17193;SDS011;8713;48.388;10.928;2023-03-23T16:46:47;2.83;;;1.33;;
17193;SDS011;8713;48.388;10.928;2023-03-23T16:48:15;2.58;;;1.38;;
17193;SDS011;8713;48.388;10.928;2023-03-23T16:49:44;2.15;;;1.40;;
17193;SDS011;8713;48.388;10.928;2023-03-23T16:51:12;2.13;;;1.40;;
17193;SDS011;8713;48.388;10.928;2023-03-23T16:52:22;2.38;;;1.40;;
17193;SDS011;8713;48.388;10.928;2023-03-23T16:53:31;2.13;;;1.20;;
17193;SDS011;8713;48.388;10.928;2023-03-23T16:55:00;3.20;;;1.58;;
17193;SDS011;8713;48.388;10.928;2023-03-23T16:56:28;2.83;;;1.55;;
17193;SDS011;8713;48.388;10.928;2023-03-23T16:57:57;1.83;;;1.25;;
17193;SDS011;8713;48.388;10.928;2023-03-23T16:59:26;3.38;;;1.15;;
17193;SDS011;8713;48.388;10.928;2023-03-23T17:00:55;2.45;;;1.25;;
17193;SDS011;8713;48.388;10.928;2023-03-23T17:02:09;3.03;;;1.30;;
17193;SDS011;8713;48.388;10.928;2023-03-23T17:03:19;3.45;;;1.27;;
17193;SDS011;8713;48.388;10.928;2023-03-23T17:04:49;4.97;;;2.13;;
17193;SDS011;8713;48.388;10.928;2023-03-23T17:06:19;1.25;;;1.05;;
17193;SDS011;8713;48.388;10.928;2023-03-23T17:07:48;1.83;;;1.42;;
17193;SDS011;8713;48.388;10.928;2023-03-23T17:08:57;2.28;;;1.30;;
17193;SDS011;8713;48.388;10.928;2023-03-23T17:10:08;2.50;;;1.40;;
17193;SDS011;8713;48.388;10.928;2023-03-23T17:11:37;3.72;;;1.42;;
17193;SDS011;8713;48.388;10.928;2023-03-23T17:13:05;3.67;;;1.50;;
17193;SDS011;8713;48.388;10.928;2023-03-23T17:14:33;2.60;;;1.40;;
17193;SDS011;8713;48.388;10.928;2023-03-23T17:16:02;1.83;;;1.35;;
17193;SDS011;8713;48.388;10.928;2023-03-23T17:17:30;3.50;;;1.52;;
17193;SDS011;8713;48.388;10.928;2023-03-23T17:18:59;3.05;;;1.45;;
17193;SDS011;8713;48.388;10.928;2023-03-23T17:20:28;2.50;;;1.30;;
17193;SDS011;8713;48.388;10.928;2023-03-23T17:21:56;4.05;;;1.48;;
17193;SDS011;8713;48.388;10.928;2023-03-23T17:23:25;2.67;;;1.65;;
17193;SDS011;8713;48.388;10.928;2023-03-23T17:24:53;2.97;;;1.70;;
17193;SDS011;8713;48.388;10.928;2023-03-23T17:26:02;3.17;;;1.65;;
17193;SDS011;8713;48.388;10.928;2023-03-23T17:27:31;2.22;;;1.45;;
17193;SDS011;8713;48.388;10.928;2023-03-23T17:28:59;4.82;;;2.05;;
17193;SDS011;8713;48.388;10.928;2023-03-23T17:30:27;6.10;;;1.92;;
17193;SDS011;8713;48.388;10.928;2023-03-23T17:31:56;3.78;;;1.92;;
17193;SDS011;8713;48.388;10.928;2023-03-23T17:33:24;3.78;;;1.95;;
17193;SDS011;8713;48.388;10.928;2023-03-23T17:34:52;2.00;;;1.58;;
17193;SDS011;8713;48.388;10.928;2023-03-23T17:36:20;4.75;;;1.65;;
17193;SDS011;8713;48.388;10.928;2023-03-23T17:37:48;4.10;;;1.70;;
17193;SDS011;8713;48.388;10.928;2023-03-23T17:38:58;2.60;;;1.67;;
17193;SDS011;8713;48.388;10.928;2023-03-23T17:40:27;4.03;;;1.95;;
17193;SDS011;8713;48.388;10.928;2023-03-23T17:41:37;2.33;;;1.55;;
17193;SDS011;8713;48.388;10.928;2023-03-23T17:42:46;2.65;;;1.70;;
17193;SDS011;8713;48.388;10.928;2023-03-23T17:44:14;3.58;;;1.80;;
17193;SDS011;8713;48.388;10.928;2023-03-23T17:45:44;3.65;;;1.63;;
17193;SDS011;8713;48.388;10.928;2023-03-23T17:47:12;4.78;;;2.08;;
17193;SDS011;8713;48.388;10.928;2023-03-23T17:48:41;5.22;;;1.90;;
17193;SDS011;8713;48.388;10.928;2023-03-23T17:50:09;3.35;;;1.80;;
17193;SDS011;8713;48.388;10.928;2023-03-23T17:51:38;3.13;;;1.73;;
17193;SDS011;8713;48.388;10.928;2023-03-23T17:53:06;3.25;;;1.70;;
17193;SDS011;8713;48.388;10.928;2023-03-23T17:54:35;3.17;;;1.77;;
17193;SDS011;8713;48.388;10.928;2023-03-23T17:56:03;4.07;;;2.22;;
17193;SDS011;8713;48.388;10.928;2023-03-23T17:57:32;4.13;;;1.95;;
17193;SDS011;8713;48.388;10.928;2023-03-23T17:59:01;6.72;;;2.47;;
17193;SDS011;8713;48.388;10.928;2023-03-23T18:00:31;6.00;;;2.47;;
17193;SDS011;8713;48.388;10.928;2023-03-23T18:01:59;4.13;;;1.90;;
17193;SDS011;8713;48.388;10.928;2023-03-23T18:03:28;4.63;;;2.00;;
17193;SDS011;8713;48.388;10.928;2023-03-23T18:04:56;3.58;;;2.05;;
17193;SDS011;8713;48.388;10.928;2023-03-23T18:06:26;3.88;;;2.20;;
17193;SDS011;8713;48.388;10.928;2023-03-23T18:07:54;5.40;;;2.95;;
17193;SDS011;8713;48.388;10.928;2023-03-23T18:09:22;4.43;;;2.25;;
17193;SDS011;8713;48.388;10.928;2023-03-23T18:10:51;3.85;;;2.35;;
17193;SDS011;8713;48.388;10.928;2023-03-23T18:12:22;3.03;;;2.17;;
17193;SDS011;8713;48.388;10.928;2023-03-23T18:13:50;3.10;;;2.00;;
17193;SDS011;8713;48.388;10.928;2023-03-23T18:15:18;3.80;;;2.35;;
17193;SDS011;8713;48.388;10.928;2023-03-23T18:16:47;5.28;;;2.15;;
17193;SDS011;8713;48.388;10.928;2023-03-23T18:18:15;4.75;;;2.35;;
17193;SDS011;8713;48.388;10.928;2023-03-23T18:19:43;5.43;;;2.45;;
17193;SDS011;8713;48.388;10.928;2023-03-23T18:21:13;2.53;;;2.00;;
17193;SDS011;8713;48.388;10.928;2023-03-23T18:22:42;3.85;;;2.13;;
17193;SDS011;8713;48.388;10.928;2023-03-23T18:24:10;3.33;;;2.22;;
17193;SDS011;8713;48.388;10.928;2023-03-23T18:25:39;5.78;;;2.42;;
17193;SDS011;8713;48.388;10.928;2023-03-23T18:27:07;3.00;;;2.20;;
17193;SDS011;8713;48.388;10.928;2023-03-23T18:28:35;4.53;;;2.33;;
17193;SDS011;8713;48.388;10.928;2023-03-23T18:30:05;3.90;;;2.20;;
17193;SDS011;8713;48.388;10.928;2023-03-23T18:31:34;3.65;;;2.20;;